Terminal Aerodrome Forecast
Issued by NWS Wakefield, VA

Home | Current Version | Previous Version | Text Only | Print | Product List | Glossary On
Versions: 1 2 3 4 5 6 7 8 9 10 11 12 13 14 15 16 17 18
000
FTUS41 KAKQ 241729
TAFRIC
TAF
KRIC 241729Z 2418/2518 21010KT P6SM SCT080 SCT250
     FM250000 19006KT P6SM FEW250
     FM251300 21010KT P6SM FEW250=

USA.gov is the U.S. government's official web portal to all federal, state and local government web resources and services.